Time;durP1;ratioP1;P1;durP2;ratioP2;P2;SDS_P1;SDS_P2;PMS_P1;PMS_P2;Temp;Humidity;BMP_temperature;BMP_pressure;BME280_temperature;BME280_humidity;BME280_pressure;Samples;Min_cycle;Max_cycle;Signal;HPM_P1;HPM_P2
2023/02/20 00:00:53;;;;;;;7.10;3.08;;;6.00;99.90;;;;;;2069811;28;20185;-64
2023/02/20 00:01:59;;;;;;;5.18;3.13;;;6.10;99.90;;;;;;2066469;28;20699;-66
2023/02/20 00:03:06;;;;;;;7.70;3.03;;;6.10;99.90;;;;;;2069685;28;20186;-64
2023/02/20 00:04:09;;;;;;;4.13;2.58;;;6.20;99.90;;;;;;2068635;28;20186;-64
2023/02/20 00:05:16;;;;;;;8.57;5.25;;;6.20;99.90;;;;;;2068217;28;20186;-65
2023/02/20 00:06:22;;;;;;;4.63;3.42;;;6.10;99.90;;;;;;2069685;28;20241;-64
2023/02/20 00:07:27;;;;;;;6.40;3.20;;;6.20;99.90;;;;;;2069614;28;20181;-64
2023/02/20 00:08:33;;;;;;;5.25;3.05;;;6.10;99.90;;;;;;2069847;28;20189;-64
2023/02/20 00:09:39;;;;;;;4.97;2.90;;;6.10;99.90;;;;;;2066342;28;20209;-65
2023/02/20 00:10:45;;;;;;;3.83;2.70;;;6.10;99.90;;;;;;2069864;28;20235;-64
2023/02/20 00:11:50;;;;;;;4.57;2.90;;;6.10;99.90;;;;;;2069716;28;20225;-64
2023/02/20 00:12:56;;;;;;;6.55;2.95;;;6.10;99.90;;;;;;2070133;28;20175;-64
2023/02/20 00:14:02;;;;;;;8.63;2.55;;;6.10;99.90;;;;;;2069675;28;20188;-65
2023/02/20 00:15:05;;;;;;;6.10;3.10;;;6.10;99.90;;;;;;2069779;28;20674;-65
2023/02/20 00:16:09;;;;;;;6.88;3.00;;;6.20;99.90;;;;;;2069801;28;20190;-64
2023/02/20 00:17:15;;;;;;;5.93;3.17;;;6.10;99.90;;;;;;2065725;28;20698;-64
2023/02/20 00:18:20;;;;;;;6.07;2.78;;;6.20;99.90;;;;;;2069367;28;20542;-64
2023/02/20 00:19:26;;;;;;;4.18;2.78;;;6.10;99.90;;;;;;2068631;28;20737;-65
2023/02/20 00:20:32;;;;;;;5.72;2.85;;;6.10;99.90;;;;;;2068761;28;20581;-64
2023/02/20 00:21:47;;;;;;;5.25;3.22;;;6.10;99.90;;;;;;2058311;28;20190;-64
2023/02/20 00:22:49;;;;;;;3.58;2.67;;;6.20;99.90;;;;;;2069183;28;20242;-67
2023/02/20 00:23:54;;;;;;;7.35;3.20;;;6.20;99.90;;;;;;2068762;28;20284;-64
2023/02/20 00:24:59;;;;;;;6.57;3.00;;;6.20;99.90;;;;;;2069626;28;20194;-64
2023/02/20 00:26:09;;;;;;;9.70;2.90;;;6.30;99.90;;;;;;2069739;28;20198;-64
2023/02/20 00:27:14;;;;;;;4.78;2.95;;;6.20;99.90;;;;;;2069959;28;20256;-64
2023/02/20 00:28:16;;;;;;;7.13;3.20;;;6.20;99.90;;;;;;2065480;28;20259;-64
2023/02/20 00:29:23;;;;;;;4.47;2.83;;;6.10;99.90;;;;;;2069446;28;20316;-64
2023/02/20 00:30:27;;;;;;;5.05;2.85;;;6.00;99.90;;;;;;2069463;28;20240;-65
2023/02/20 00:31:33;;;;;;;7.47;2.90;;;5.90;99.90;;;;;;2069542;28;20195;-64
2023/02/20 00:32:38;;;;;;;11.82;4.78;;;5.90;99.90;;;;;;2065777;28;20189;-64
2023/02/20 00:33:44;;;;;;;4.70;2.80;;;5.80;99.90;;;;;;2068880;28;20199;-64
2023/02/20 00:34:50;;;;;;;4.25;2.88;;;5.80;99.90;;;;;;2068958;28;20209;-64
2023/02/20 00:35:55;;;;;;;6.40;2.75;;;5.80;99.90;;;;;;2058702;28;20219;-64
2023/02/20 00:37:00;;;;;;;5.35;3.17;;;5.90;99.90;;;;;;2072535;28;20189;-64
2023/02/20 00:38:04;;;;;;;7.30;2.60;;;5.90;99.90;;;;;;2069067;28;20213;-64
2023/02/20 00:39:09;;;;;;;5.93;3.08;;;6.00;99.90;;;;;;2069571;28;20847;-64
2023/02/20 00:40:18;;;;;;;5.63;2.78;;;6.10;99.90;;;;;;2066034;28;20192;-64
2023/02/20 00:41:20;;;;;;;5.72;3.20;;;6.20;99.90;;;;;;2069433;28;20182;-64
2023/02/20 00:42:26;;;;;;;4.32;2.58;;;6.20;99.90;;;;;;2069343;28;20178;-64
2023/02/20 00:43:35;;;;;;;5.15;2.78;;;6.20;99.90;;;;;;2069760;28;20682;-64
2023/02/20 00:44:40;;;;;;;6.00;3.15;;;6.10;99.90;;;;;;2069806;28;20698;-64
2023/02/20 00:45:46;;;;;;;6.15;2.83;;;6.10;99.90;;;;;;2069934;28;20178;-64
2023/02/20 00:46:51;;;;;;;6.03;2.90;;;6.10;99.90;;;;;;2069604;28;20178;-65
2023/02/20 00:47:57;;;;;;;6.35;2.85;;;6.10;99.90;;;;;;2068557;28;20196;-64
2023/02/20 00:49:03;;;;;;;5.70;3.35;;;6.00;99.90;;;;;;2068795;28;20196;-64
2023/02/20 00:50:06;;;;;;;4.30;2.58;;;6.00;99.90;;;;;;2069398;28;20276;-64
2023/02/20 00:51:10;;;;;;;9.07;3.30;;;6.00;99.90;;;;;;2069347;28;20219;-64
2023/02/20 00:52:15;;;;;;;4.68;2.90;;;6.10;99.90;;;;;;2069770;28;20204;-64
2023/02/20 00:53:20;;;;;;;5.93;2.70;;;6.20;99.90;;;;;;2069633;28;20177;-64
2023/02/20 00:54:26;;;;;;;6.35;3.38;;;6.10;99.90;;;;;;2069084;28;20177;-64
2023/02/20 00:55:31;;;;;;;4.45;2.70;;;6.20;99.90;;;;;;2065124;28;20194;-64
2023/02/20 00:56:37;;;;;;;9.15;3.10;;;6.30;99.90;;;;;;2069432;28;20190;-63
2023/02/20 00:57:42;;;;;;;4.70;2.80;;;6.40;99.90;;;;;;2068964;28;20193;-63
2023/02/20 00:58:47;;;;;;;6.18;3.40;;;6.40;99.90;;;;;;2069171;28;20244;-64
2023/02/20 00:59:53;;;;;;;3.50;2.63;;;6.40;99.90;;;;;;2068323;28;20184;-63
2023/02/20 01:00:58;;;;;;;6.07;2.88;;;6.40;99.90;;;;;;2068463;28;20682;-63
2023/02/20 01:02:05;;;;;;;6.80;2.85;;;6.40;99.90;;;;;;2068547;28;20182;-64
2023/02/20 01:03:09;;;;;;;5.68;3.05;;;6.30;99.90;;;;;;2064716;28;20202;-63
2023/02/20 01:04:14;;;;;;;5.55;2.72;;;6.20;99.90;;;;;;2068764;28;20204;-64
2023/02/20 01:05:20;;;;;;;6.15;3.25;;;6.20;99.90;;;;;;2069234;28;20205;-64
2023/02/20 01:06:25;;;;;;;6.63;3.42;;;6.10;99.90;;;;;;2068774;28;20644;-64
2023/02/20 01:07:31;;;;;;;7.97;3.17;;;6.10;99.90;;;;;;2065271;28;20181;-64
2023/02/20 01:08:36;;;;;;;10.38;3.17;;;6.10;99.90;;;;;;2068985;28;20265;-64
2023/02/20 01:09:42;;;;;;;4.57;2.78;;;6.10;99.90;;;;;;2069165;28;20304;-65
2023/02/20 01:10:47;;;;;;;6.38;2.97;;;6.10;99.90;;;;;;2068866;28;20249;-64
2023/02/20 01:11:53;;;;;;;6.97;3.20;;;6.10;99.90;;;;;;2069029;28;20195;-64
2023/02/20 01:12:58;;;;;;;7.65;3.05;;;6.10;99.90;;;;;;2069670;28;20698;-64
2023/02/20 01:14:04;;;;;;;5.93;3.25;;;6.10;99.90;;;;;;2069452;28;20244;-64
2023/02/20 01:15:12;;;;;;;6.53;3.42;;;6.00;99.90;;;;;;2065827;28;20659;-64
2023/02/20 01:16:14;;;;;;;7.18;2.92;;;6.00;99.90;;;;;;2069030;28;20216;-64
2023/02/20 01:17:20;;;;;;;7.07;3.20;;;6.00;99.90;;;;;;2069174;28;20643;-64
2023/02/20 01:18:26;;;;;;;6.38;3.22;;;6.00;99.90;;;;;;2068838;28;20210;-65
2023/02/20 01:19:31;;;;;;;7.32;3.45;;;6.00;99.90;;;;;;2069388;28;20289;-64
2023/02/20 01:20:36;;;;;;;6.75;3.50;;;6.00;99.90;;;;;;2068863;28;20285;-64
2023/02/20 01:21:42;;;;;;;6.15;3.08;;;6.10;99.90;;;;;;2068887;28;20181;-64
2023/02/20 01:22:47;;;;;;;6.63;3.80;;;6.00;99.90;;;;;;2065686;28;20635;-64
2023/02/20 01:23:53;;;;;;;7.03;2.90;;;5.90;99.90;;;;;;2069069;28;20195;-64
2023/02/20 01:24:58;;;;;;;8.82;3.55;;;5.90;99.90;;;;;;2069191;28;20184;-64
2023/02/20 01:26:04;;;;;;;4.75;3.35;;;5.90;99.90;;;;;;2068985;28;20190;-66
2023/02/20 01:27:09;;;;;;;8.40;3.03;;;6.00;99.90;;;;;;2069362;28;20178;-64
2023/02/20 01:28:15;;;;;;;5.85;3.67;;;6.00;99.90;;;;;;2069159;28;20193;-64
2023/02/20 01:29:20;;;;;;;5.53;3.13;;;6.00;99.90;;;;;;2069370;28;20267;-64
2023/02/20 01:30:25;;;;;;;9.43;3.53;;;5.90;99.90;;;;;;2065324;28;20269;-64
2023/02/20 01:31:31;;;;;;;6.93;3.35;;;5.90;99.90;;;;;;2068987;28;20209;-65
2023/02/20 01:32:36;;;;;;;8.25;3.40;;;5.90;99.90;;;;;;2068939;28;20298;-64
2023/02/20 01:33:43;;;;;;;7.88;3.53;;;5.90;99.90;;;;;;2069092;28;20266;-64
2023/02/20 01:34:45;;;;;;;5.80;3.22;;;6.00;99.90;;;;;;2064750;28;20200;-64
2023/02/20 01:35:50;;;;;;;9.38;3.38;;;6.00;99.90;;;;;;2068518;28;20186;-64
2023/02/20 01:36:56;;;;;;;8.93;4.07;;;6.10;99.90;;;;;;2068936;28;20572;-64
2023/02/20 01:38:05;;;;;;;7.97;3.92;;;6.00;99.90;;;;;;2068919;28;20296;-64
2023/02/20 01:39:09;;;;;;;7.95;3.58;;;6.00;99.90;;;;;;2069413;28;20293;-64
2023/02/20 01:40:21;;;;;;;7.32;3.00;;;5.90;99.90;;;;;;2069273;28;20183;-64
2023/02/20 01:41:26;;;;;;;7.68;3.60;;;6.00;99.90;;;;;;2064838;28;20257;-64
2023/02/20 01:42:31;;;;;;;6.95;3.05;;;6.00;99.90;;;;;;2068461;28;20190;-63
2023/02/20 01:43:34;;;;;;;5.22;2.90;;;6.00;99.90;;;;;;2060301;28;20270;-64
2023/02/20 01:44:41;;;;;;;10.75;4.07;;;6.00;99.90;;;;;;2061197;28;20326;-63
2023/02/20 01:45:46;;;;;;;5.82;3.28;;;5.90;99.90;;;;;;2065131;28;20678;-63
2023/02/20 01:46:57;;;;;;;5.63;3.08;;;6.00;99.90;;;;;;2061597;28;20189;-66
2023/02/20 01:47:58;;;;;;;8.00;3.50;;;6.00;99.90;;;;;;2068211;28;20190;-64
2023/02/20 01:49:10;;;;;;;7.13;3.35;;;6.10;99.90;;;;;;2065133;28;20193;-64
2023/02/20 01:50:17;;;;;;;6.25;3.90;;;6.10;99.90;;;;;;2068256;28;20185;-63
2023/02/20 01:51:20;;;;;;;5.18;3.10;;;6.10;99.90;;;;;;2068318;28;20668;-64
2023/02/20 01:52:28;;;;;;;4.90;3.15;;;6.10;99.90;;;;;;2065210;28;20552;-64
2023/02/20 01:53:30;;;;;;;8.15;3.53;;;6.10;99.90;;;;;;2068736;28;20209;-64
2023/02/20 01:54:38;;;;;;;5.25;3.10;;;6.00;99.90;;;;;;2068233;28;20755;-64
2023/02/20 01:55:49;;;;;;;7.53;3.90;;;6.10;99.90;;;;;;2061431;28;20628;-63
2023/02/20 01:56:52;;;;;;;5.68;3.13;;;6.00;99.90;;;;;;2068479;28;20191;-64
2023/02/20 01:58:10;;;;;;;5.50;3.60;;;6.00;99.90;;;;;;2067775;28;20229;-64
2023/02/20 01:59:19;;;;;;;8.27;3.30;;;5.90;99.90;;;;;;2060595;28;20198;-64
2023/02/20 02:00:25;;;;;;;5.28;3.15;;;5.90;99.90;;;;;;2068560;28;20174;-64
2023/02/20 02:01:32;;;;;;;6.40;3.30;;;5.70;99.90;;;;;;2064517;28;20188;-64
2023/02/20 02:02:49;;;;;;;6.57;3.45;;;5.60;99.90;;;;;;2059778;28;20178;-63
2023/02/20 02:04:03;;;;;;;6.50;3.15;;;5.60;99.90;;;;;;2064509;28;20223;-64
2023/02/20 02:05:07;;;;;;;5.80;3.00;;;5.60;99.90;;;;;;2068608;28;20193;-64
2023/02/20 02:06:12;;;;;;;5.10;3.20;;;5.70;99.90;;;;;;2060940;28;20219;-64
2023/02/20 02:07:18;;;;;;;5.47;2.90;;;5.70;99.90;;;;;;2061516;28;20178;-64
2023/02/20 02:08:26;;;;;;;6.00;3.75;;;5.70;99.90;;;;;;2061145;28;20186;-64
2023/02/20 02:09:57;;;;;;;7.82;3.78;;;5.70;99.90;;;;;;2068611;28;20242;-64
2023/02/20 02:11:08;;;;;;;7.30;3.10;;;5.70;99.90;;;;;;2068556;28;20222;-65
2023/02/20 02:12:10;;;;;;;7.75;3.33;;;5.60;99.90;;;;;;2067128;28;20241;-65
2023/02/20 02:13:15;;;;;;;8.40;3.40;;;5.70;99.90;;;;;;2068898;28;20269;-65
2023/02/20 02:14:22;;;;;;;4.97;2.90;;;5.70;99.90;;;;;;2068619;28;20277;-65
2023/02/20 02:15:26;;;;;;;7.45;3.60;;;5.80;99.90;;;;;;2064924;28;20219;-64
2023/02/20 02:16:41;;;;;;;4.82;3.15;;;5.80;99.90;;;;;;2068304;28;20209;-65
2023/02/20 02:18:15;;;;;;;6.15;3.63;;;5.90;99.90;;;;;;2064777;28;20276;-65
2023/02/20 02:20:01;;;;;;;9.23;3.40;;;5.90;99.90;;;;;;2066183;28;20694;-65
2023/02/20 02:22:05;;;;;;;5.30;3.05;;;5.90;99.90;;;;;;2067846;28;20256;-65
2023/02/20 02:23:31;;;;;;;6.05;3.17;;;5.90;99.90;;;;;;2049892;28;20276;-65
2023/02/20 02:24:48;;;;;;;9.38;3.65;;;5.90;99.90;;;;;;2065873;28;20194;-65
2023/02/20 02:26:11;;;;;;;7.55;3.92;;;5.80;99.90;;;;;;2068244;28;20216;-65
2023/02/20 02:27:16;;;;;;;10.77;3.55;;;5.80;99.90;;;;;;2068676;28;20189;-65
2023/02/20 02:28:46;;;;;;;5.55;3.60;;;5.80;99.90;;;;;;2068514;28;20689;-65
2023/02/20 02:30:10;;;;;;;6.60;3.50;;;5.80;99.90;;;;;;2066251;28;20193;-65
2023/02/20 02:31:45;;;;;;;9.98;3.80;;;5.80;99.90;;;;;;2065830;28;20252;-65
2023/02/20 02:33:23;;;;;;;4.88;3.13;;;5.70;99.90;;;;;;2058327;28;20260;-65
2023/02/20 02:35:02;;;;;;;6.75;3.30;;;5.70;99.90;;;;;;2067479;28;20276;-65
2023/02/20 02:36:16;;;;;;;6.22;3.58;;;5.60;99.90;;;;;;2068764;28;20192;-65
2023/02/20 02:37:57;;;;;;;6.55;3.50;;;5.60;99.90;;;;;;2065003;28;20178;-65
2023/02/20 02:39:10;;;;;;;10.38;4.63;;;5.50;99.90;;;;;;2067965;28;20590;-65
2023/02/20 02:40:30;;;;;;;4.43;3.40;;;5.50;99.90;;;;;;2065278;28;20193;-65
2023/02/20 02:42:16;;;;;;;7.78;3.30;;;5.50;99.90;;;;;;2067988;28;20268;-65
2023/02/20 02:44:00;;;;;;;6.20;3.40;;;5.50;99.90;;;;;;2068205;28;20208;-65
2023/02/20 02:45:33;;;;;;;6.53;3.83;;;5.40;99.90;;;;;;2065095;28;20888;-65
2023/02/20 02:46:48;;;;;;;4.80;3.20;;;5.40;99.90;;;;;;2065929;28;20205;-65
2023/02/20 02:48:03;;;;;;;7.05;3.28;;;5.50;99.90;;;;;;2057942;28;20173;-65
2023/02/20 02:49:23;;;;;;;5.60;3.05;;;5.40;99.90;;;;;;2059800;28;20214;-65
2023/02/20 02:50:35;;;;;;;8.13;3.30;;;5.40;99.90;;;;;;2066256;28;20255;-65
2023/02/20 02:51:44;;;;;;;7.18;2.92;;;5.40;99.90;;;;;;2068104;28;20190;-65
2023/02/20 02:52:52;;;;;;;6.53;2.90;;;5.50;99.90;;;;;;2062205;28;20575;-65
2023/02/20 02:54:11;;;;;;;5.88;3.33;;;5.40;99.90;;;;;;2068265;28;20700;-66
2023/02/20 02:55:26;;;;;;;6.90;3.13;;;5.50;99.90;;;;;;2066203;28;20561;-65
2023/02/20 02:56:38;;;;;;;5.72;3.00;;;5.40;99.90;;;;;;2065433;28;20173;-65
2023/02/20 02:57:44;;;;;;;6.43;3.35;;;5.40;99.90;;;;;;2068042;28;20186;-65
2023/02/20 02:58:53;;;;;;;4.93;3.22;;;5.50;99.90;;;;;;2068116;28;20191;-65
2023/02/20 03:00:14;;;;;;;8.23;3.42;;;5.50;99.90;;;;;;2068068;28;20275;-65
2023/02/20 03:01:21;;;;;;;8.52;3.22;;;5.50;99.90;;;;;;2064749;28;20186;-64
2023/02/20 03:02:59;;;;;;;10.05;3.22;;;5.50;99.90;;;;;;2068023;28;20181;-64
2023/02/20 03:04:06;;;;;;;7.60;3.10;;;5.60;99.90;;;;;;2069530;28;20229;-65
2023/02/20 03:05:14;;;;;;;3.83;2.70;;;5.50;99.90;;;;;;2064701;28;20200;-65
2023/02/20 03:06:29;;;;;;;4.95;2.75;;;5.50;99.90;;;;;;2068129;28;20241;-64
2023/02/20 03:07:37;;;;;;;4.28;2.95;;;5.40;99.90;;;;;;2067719;28;20185;-64
2023/02/20 03:08:56;;;;;;;4.85;2.83;;;5.30;99.90;;;;;;2067835;28;20182;-64
2023/02/20 03:10:07;;;;;;;8.27;3.38;;;5.20;99.90;;;;;;2065532;28;20174;-64
2023/02/20 03:11:18;;;;;;;9.25;2.85;;;5.20;99.90;;;;;;2061813;28;20218;-64
2023/02/20 03:12:26;;;;;;;10.23;3.15;;;5.10;99.90;;;;;;2061706;28;20679;-64
2023/02/20 03:17:11;;;;;;;5.10;2.92;;;4.90;99.90;;;;;;2063293;28;20674;-64
2023/02/20 03:18:37;;;;;;;3.90;2.70;;;4.70;99.90;;;;;;2065583;28;20232;-64
2023/02/20 03:19:48;;;;;;;7.03;3.03;;;4.60;99.90;;;;;;2067587;28;21217;-64
2023/02/20 03:20:57;;;;;;;4.50;2.97;;;4.50;99.90;;;;;;2064500;28;20198;-65
2023/02/20 03:22:00;;;;;;;4.65;2.72;;;4.50;99.90;;;;;;2059745;28;20189;-64
2023/02/20 03:23:07;;;;;;;4.45;2.60;;;4.40;99.90;;;;;;2059926;28;20663;-64
2023/02/20 03:24:12;;;;;;;5.60;2.83;;;4.30;99.90;;;;;;2067773;28;20186;-64
2023/02/20 03:25:52;;;;;;;6.35;2.97;;;4.30;99.90;;;;;;2057320;28;20753;-64
2023/02/20 03:26:59;;;;;;;5.85;3.03;;;4.20;99.90;;;;;;2057229;28;20633;-64
2023/02/20 03:28:21;;;;;;;7.35;3.40;;;4.10;99.90;;;;;;2065118;28;20601;-64
2023/02/20 03:29:34;;;;;;;7.82;3.40;;;4.00;99.90;;;;;;2072846;28;20226;-64
2023/02/20 03:31:01;;;;;;;5.53;3.22;;;4.00;99.90;;;;;;2060154;28;20186;-65
2023/02/20 03:44:13;;;;;;;7.57;3.25;;;3.50;99.90;;;;;;2067846;28;20229;-64
2023/02/20 03:45:23;;;;;;;9.10;3.50;;;3.50;99.90;;;;;;2061896;28;20187;-64
2023/02/20 03:46:32;;;;;;;6.10;3.35;;;3.40;99.90;;;;;;2063132;28;20190;-64
2023/02/20 03:47:43;;;;;;;8.45;3.25;;;3.40;99.90;;;;;;2063167;28;20183;-64
2023/02/20 03:49:01;;;;;;;7.30;3.50;;;3.40;99.90;;;;;;2069604;28;20260;-64
2023/02/20 03:50:09;;;;;;;6.53;3.72;;;3.30;99.90;;;;;;2065907;28;20185;-64
2023/02/20 03:52:40;;;;;;;7.88;4.10;;;3.40;99.90;;;;;;2067907;28;20189;-64
2023/02/20 03:53:46;;;;;;;8.32;4.30;;;3.40;99.90;;;;;;2069748;28;20205;-64
2023/02/20 03:54:53;;;;;;;10.95;4.60;;;3.40;99.90;;;;;;2066431;28;20188;-64
2023/02/20 03:56:04;;;;;;;10.95;4.22;;;3.40;99.90;;;;;;2069749;28;20191;-65
2023/02/20 03:57:33;;;;;;;7.53;4.18;;;3.40;99.90;;;;;;2068437;28;20644;-64
2023/02/20 03:58:47;;;;;;;8.10;3.78;;;3.40;99.90;;;;;;2057419;28;20633;-64
2023/02/20 04:00:08;;;;;;;8.27;3.97;;;3.30;99.90;;;;;;2063531;28;20280;-64
2023/02/20 04:01:14;;;;;;;7.18;3.80;;;3.30;99.90;;;;;;2071784;28;20188;-64
2023/02/20 04:02:26;;;;;;;8.60;4.10;;;3.20;99.90;;;;;;2069214;28;20185;-64
2023/02/20 04:03:38;;;;;;;5.32;3.60;;;3.20;99.90;;;;;;2060712;28;20186;-64
2023/02/20 04:04:47;;;;;;;6.82;3.22;;;3.20;99.90;;;;;;2062712;28;20204;-64
2023/02/20 04:05:53;;;;;;;8.23;3.92;;;3.20;99.90;;;;;;2069518;28;20689;-64
2023/02/20 04:06:57;;;;;;;7.07;3.90;;;3.10;99.90;;;;;;2069444;28;20703;-64
2023/02/20 04:08:09;;;;;;;5.95;3.30;;;3.10;99.90;;;;;;2053753;28;20222;-64
2023/02/20 04:09:22;;;;;;;9.13;3.90;;;3.00;99.90;;;;;;2053637;28;20217;-64
2023/02/20 04:10:35;;;;;;;8.10;3.60;;;3.00;99.90;;;;;;2063379;28;20175;-64
2023/02/20 04:11:50;;;;;;;5.80;3.33;;;3.00;99.90;;;;;;2069082;28;20202;-64
2023/02/20 04:12:57;;;;;;;8.20;3.65;;;3.00;99.90;;;;;;2069637;28;20188;-64
2023/02/20 04:14:03;;;;;;;8.10;3.80;;;2.90;99.90;;;;;;2065051;28;20229;-64
2023/02/20 04:15:07;;;;;;;10.32;4.53;;;3.00;99.90;;;;;;2068984;28;20252;-64
2023/02/20 04:16:09;;;;;;;11.10;3.60;;;3.00;99.90;;;;;;2069320;28;20279;-64
2023/02/20 04:17:21;;;;;;;9.35;3.83;;;3.00;99.90;;;;;;2069053;28;20220;-64
2023/02/20 04:18:27;;;;;;;5.78;3.45;;;3.00;99.90;;;;;;2063036;28;20232;-64
2023/02/20 04:19:33;;;;;;;5.78;3.50;;;3.00;99.90;;;;;;2069647;28;20208;-65
2023/02/20 04:20:39;;;;;;;5.28;3.45;;;3.00;99.90;;;;;;2057313;28;20190;-64
2023/02/20 04:21:59;;;;;;;10.75;3.53;;;3.00;99.90;;;;;;2062702;28;20336;-64
2023/02/20 04:23:14;;;;;;;6.05;3.25;;;3.00;99.90;;;;;;2065554;28;20197;-64
2023/02/20 04:24:58;;;;;;;8.40;3.38;;;3.00;99.90;;;;;;2072257;28;20302;-64
2023/02/20 04:26:24;;;;;;;7.78;3.35;;;3.00;99.90;;;;;;2066403;28;20752;-64
2023/02/20 04:27:31;;;;;;;7.07;3.50;;;2.90;99.90;;;;;;2062491;28;20193;-64
2023/02/20 04:28:37;;;;;;;7.45;3.25;;;2.90;99.90;;;;;;2068764;28;20179;-64
2023/02/20 04:29:42;;;;;;;7.93;3.60;;;2.90;99.90;;;;;;2077268;28;20244;-64
2023/02/20 04:30:49;;;;;;;6.60;4.07;;;2.80;99.90;;;;;;2076148;28;20188;-64
2023/02/20 04:31:55;;;;;;;6.35;3.35;;;2.80;99.90;;;;;;2069976;28;20190;-65
2023/02/20 04:33:00;;;;;;;7.82;3.60;;;2.80;99.90;;;;;;2069773;28;20193;-64
2023/02/20 04:34:04;;;;;;;5.95;3.67;;;2.80;99.90;;;;;;2066083;28;20188;-64
2023/02/20 04:35:17;;;;;;;5.72;3.30;;;2.70;99.90;;;;;;2069526;28;20189;-64
2023/02/20 04:36:24;;;;;;;9.25;3.80;;;2.80;99.90;;;;;;2069651;28;20233;-64
2023/02/20 04:37:29;;;;;;;9.18;4.03;;;2.70;99.90;;;;;;2069135;28;20190;-64
2023/02/20 04:38:35;;;;;;;11.02;5.35;;;2.70;99.90;;;;;;2069211;28;20221;-65
2023/02/20 04:39:41;;;;;;;8.52;4.45;;;2.70;99.90;;;;;;2069236;28;20662;-64
2023/02/20 04:40:47;;;;;;;8.18;4.28;;;2.70;99.90;;;;;;2058800;28;20223;-64
2023/02/20 04:41:52;;;;;;;10.98;4.15;;;2.60;99.90;;;;;;2068960;28;20193;-65
2023/02/20 04:42:58;;;;;;;9.88;4.10;;;2.60;99.90;;;;;;2069109;28;20192;-64
2023/02/20 04:45:28;;;;;;;8.13;4.13;;;2.60;99.90;;;;;;2069704;28;20198;-64
2023/02/20 04:46:34;;;;;;;9.40;4.30;;;2.50;99.90;;;;;;2069673;28;20189;-64
2023/02/20 04:47:40;;;;;;;9.05;4.53;;;2.50;99.90;;;;;;2069245;28;20195;-64
2023/02/20 04:48:46;;;;;;;7.35;4.45;;;2.50;99.90;;;;;;2069490;28;20179;-64
2023/02/20 04:49:51;;;;;;;17.10;6.18;;;2.40;99.90;;;;;;2066156;28;20190;-64
2023/02/20 04:50:57;;;;;;;15.73;5.70;;;2.40;99.90;;;;;;2069378;28;20180;-64
2023/02/20 04:52:03;;;;;;;11.75;6.03;;;2.40;99.90;;;;;;2069280;28;20196;-64
2023/02/20 04:53:04;;;;;;;8.98;4.40;;;2.30;99.90;;;;;;2069426;28;20647;-64
2023/02/20 04:54:09;;;;;;;13.30;4.90;;;2.30;99.90;;;;;;2065981;28;20177;-64
2023/02/20 04:55:16;;;;;;;9.57;5.10;;;2.30;99.90;;;;;;2069402;28;20645;-64
2023/02/20 04:56:21;;;;;;;8.32;4.68;;;2.30;99.90;;;;;;2069418;28;20214;-65
2023/02/20 04:57:27;;;;;;;9.57;4.78;;;2.30;99.90;;;;;;2068923;28;20355;-64
2023/02/20 04:58:35;;;;;;;9.18;4.03;;;2.30;99.90;;;;;;2067719;28;20222;-64
2023/02/20 04:59:41;;;;;;;10.32;4.03;;;2.20;99.90;;;;;;2069385;28;20206;-64
2023/02/20 05:00:47;;;;;;;9.95;4.47;;;2.20;99.90;;;;;;2069316;28;20564;-64
2023/02/20 05:01:53;;;;;;;12.43;4.05;;;2.20;99.90;;;;;;2069687;28;20181;-64
2023/02/20 05:02:59;;;;;;;6.30;3.97;;;2.10;99.90;;;;;;2069559;28;20198;-64
2023/02/20 05:04:04;;;;;;;9.32;4.03;;;2.10;99.90;;;;;;2068969;28;20199;-64
2023/02/20 05:05:26;;;;;;;8.30;4.60;;;2.10;99.90;;;;;;2065330;28;20189;-64
2023/02/20 05:06:32;;;;;;;8.88;4.10;;;2.10;99.90;;;;;;2069244;28;20232;-65
2023/02/20 05:07:37;;;;;;;7.55;4.30;;;2.10;99.90;;;;;;2069496;28;20659;-64
2023/02/20 05:08:43;;;;;;;8.48;4.25;;;2.10;99.90;;;;;;2069377;28;20191;-64
2023/02/20 05:09:48;;;;;;;8.55;4.55;;;2.00;99.90;;;;;;2069434;28;20206;-65
2023/02/20 05:10:54;;;;;;;6.63;4.20;;;2.00;99.90;;;;;;2065527;28;20268;-64
2023/02/20 05:12:00;;;;;;;8.60;3.58;;;2.00;99.90;;;;;;2069245;28;20287;-64
2023/02/20 05:13:04;;;;;;;9.00;4.50;;;1.90;99.90;;;;;;2068978;28;20192;-64
2023/02/20 05:14:10;;;;;;;7.35;3.50;;;1.90;99.90;;;;;;2069311;28;20204;-64
2023/02/20 05:15:15;;;;;;;8.93;3.85;;;1.90;99.90;;;;;;2068820;28;20196;-65
2023/02/20 05:16:20;;;;;;;7.15;3.60;;;1.90;99.90;;;;;;2068776;28;20269;-64
2023/02/20 05:17:26;;;;;;;6.95;3.97;;;1.80;99.90;;;;;;2069328;28;20260;-64
2023/02/20 05:18:31;;;;;;;5.65;3.63;;;1.80;99.90;;;;;;2061325;28;20300;-64
2023/02/20 05:19:37;;;;;;;7.97;3.90;;;1.80;99.90;;;;;;2067007;28;20199;-64
2023/02/20 05:22:20;;;;;;;7.55;3.95;;;1.80;99.90;;;;;;2066059;28;20662;-64
2023/02/20 05:23:25;;;;;;;9.93;4.88;;;1.80;99.90;;;;;;2068722;28;20178;-64
2023/02/20 05:24:31;;;;;;;9.60;4.68;;;1.80;99.90;;;;;;2068946;28;20178;-64
2023/02/20 05:25:36;;;;;;;15.80;4.32;;;1.80;99.90;;;;;;2069401;28;20287;-64
2023/02/20 05:26:42;;;;;;;10.75;5.43;;;1.70;99.90;;;;;;2065650;28;20188;-64
2023/02/20 05:27:47;;;;;;;35.05;10.27;;;1.70;99.90;;;;;;2068786;28;20738;-64
2023/02/20 05:28:53;;;;;;;18.60;8.63;;;1.70;99.90;;;;;;2068940;28;20580;-64
2023/02/20 05:30:00;;;;;;;18.92;7.85;;;1.70;99.90;;;;;;2069451;28;20206;-64
2023/02/20 05:31:05;;;;;;;16.95;7.60;;;1.70;99.90;;;;;;2069336;28;20190;-64
2023/02/20 05:32:09;;;;;;;17.55;7.10;;;1.70;99.90;;;;;;2069444;28;20684;-64
2023/02/20 05:33:15;;;;;;;21.23;8.20;;;1.70;99.90;;;;;;2069259;28;20177;-64
2023/02/20 05:34:21;;;;;;;17.75;7.25;;;1.70;99.90;;;;;;2065653;28;20178;-64
2023/02/20 05:35:27;;;;;;;17.02;7.43;;;1.70;99.90;;;;;;2068770;28;20194;-64
2023/02/20 05:36:33;;;;;;;16.08;6.25;;;1.60;99.90;;;;;;2069070;28;20198;-65
2023/02/20 05:37:38;;;;;;;12.77;6.40;;;1.70;99.90;;;;;;2064910;28;20194;-64
2023/02/20 05:38:46;;;;;;;15.40;5.95;;;1.60;99.90;;;;;;2068969;28;20205;-63
2023/02/20 05:39:53;;;;;;;11.05;6.10;;;1.70;99.90;;;;;;2068749;28;20759;-64
2023/02/20 05:40:58;;;;;;;12.68;5.43;;;1.70;99.90;;;;;;2069272;28;20232;-64
2023/02/20 05:42:05;;;;;;;12.20;5.88;;;1.60;99.90;;;;;;2068959;28;20532;-64
2023/02/20 05:43:09;;;;;;;14.55;5.80;;;1.60;99.90;;;;;;2069239;28;20557;-64
2023/02/20 05:44:14;;;;;;;13.57;5.75;;;1.50;99.90;;;;;;2068971;28;20205;-64
2023/02/20 05:45:20;;;;;;;14.48;5.90;;;1.50;99.90;;;;;;2065395;28;20173;-63
2023/02/20 05:46:26;;;;;;;11.20;5.30;;;1.50;99.90;;;;;;2068648;28;20566;-64
2023/02/20 05:47:31;;;;;;;14.68;5.55;;;1.50;99.90;;;;;;2068573;28;20239;-64
2023/02/20 05:48:36;;;;;;;15.38;6.18;;;1.50;99.90;;;;;;2068751;28;20179;-64
2023/02/20 05:49:42;;;;;;;17.30;5.93;;;1.40;99.90;;;;;;2068966;28;20273;-63
2023/02/20 05:50:49;;;;;;;12.35;5.55;;;1.40;99.90;;;;;;2069044;28;20196;-64
2023/02/20 05:51:56;;;;;;;12.63;5.78;;;1.40;99.90;;;;;;2065405;28;20197;-63
2023/02/20 05:53:01;;;;;;;11.27;4.88;;;1.40;99.90;;;;;;2065604;28;20196;-64
2023/02/20 05:54:06;;;;;;;10.88;5.45;;;1.40;99.90;;;;;;2068558;28;20179;-64
2023/02/20 05:55:09;;;;;;;7.00;4.05;;;1.40;99.90;;;;;;2067802;28;20188;-63
2023/02/20 05:56:14;;;;;;;10.18;4.55;;;1.40;99.90;;;;;;2068507;28;20617;-64
2023/02/20 05:57:20;;;;;;;8.98;4.35;;;1.40;99.90;;;;;;2068328;28;20344;-63
2023/02/20 05:58:25;;;;;;;7.40;4.03;;;1.40;99.90;;;;;;2068030;28;20305;-64
2023/02/20 05:59:31;;;;;;;9.40;4.25;;;1.40;99.90;;;;;;2069174;28;20233;-64
2023/02/20 06:00:36;;;;;;;8.85;4.28;;;1.40;99.90;;;;;;2064921;28;20192;-64
2023/02/20 06:01:42;;;;;;;9.57;4.10;;;1.40;99.90;;;;;;2068823;28;20209;-64
2023/02/20 06:02:47;;;;;;;8.68;4.30;;;1.40;99.90;;;;;;2068489;28;20667;-63
2023/02/20 06:03:53;;;;;;;9.60;4.50;;;1.30;99.90;;;;;;2068650;28;20237;-64
2023/02/20 06:04:59;;;;;;;7.55;4.43;;;1.30;99.90;;;;;;2065466;28;20195;-64
2023/02/20 06:06:04;;;;;;;7.50;4.32;;;1.30;99.90;;;;;;2068686;28;20182;-64
2023/02/20 06:07:09;;;;;;;7.65;4.03;;;1.30;99.90;;;;;;2068538;28;20722;-64
2023/02/20 06:08:14;;;;;;;13.32;3.88;;;1.30;99.90;;;;;;2064745;28;20206;-64
2023/02/20 06:09:20;;;;;;;7.53;3.58;;;1.20;99.90;;;;;;2068798;28;20215;-64
2023/02/20 06:10:23;;;;;;;7.70;4.28;;;1.20;99.90;;;;;;2068034;28;20196;-64
2023/02/20 06:11:28;;;;;;;6.80;4.00;;;1.20;99.90;;;;;;2068154;28;20718;-64
2023/02/20 06:12:34;;;;;;;10.02;4.90;;;1.20;99.90;;;;;;2064979;28;20305;-64
2023/02/20 06:13:41;;;;;;;8.85;5.00;;;1.20;99.90;;;;;;2068586;28;20195;-64
2023/02/20 06:14:47;;;;;;;11.38;4.40;;;1.20;99.90;;;;;;2067865;28;20667;-63
2023/02/20 06:15:53;;;;;;;9.63;4.53;;;1.20;99.90;;;;;;2068280;28;20841;-63
2023/02/20 06:16:58;;;;;;;7.95;4.38;;;1.20;99.90;;;;;;2068869;28;20195;-63
2023/02/20 06:18:03;;;;;;;7.20;4.10;;;1.20;99.90;;;;;;2067492;28;20214;-64
2023/02/20 06:19:05;;;;;;;13.43;4.50;;;1.20;99.90;;;;;;2074822;28;20629;-63
2023/02/20 06:20:10;;;;;;;7.55;4.40;;;1.20;99.90;;;;;;2075700;28;20284;-64
2023/02/20 06:21:15;;;;;;;15.00;4.70;;;1.20;99.90;;;;;;2068438;28;20314;-64
2023/02/20 06:22:20;;;;;;;9.18;4.22;;;1.10;99.90;;;;;;2068529;28;20224;-64
2023/02/20 06:23:26;;;;;;;9.38;4.18;;;1.10;99.90;;;;;;2068421;28;20546;-64